createdAt,value
2019-01-31T00:00:02.251Z,408.58
2019-01-31T00:01:02.280Z,409.97
2019-01-31T00:02:02.266Z,409.06
2019-01-31T00:03:02.233Z,408.79
2019-01-31T00:04:02.210Z,409.30
2019-01-31T00:05:02.193Z,409.89
2019-01-31T00:06:02.223Z,407.96
2019-01-31T00:07:02.166Z,408.73
2019-01-31T00:08:02.159Z,408.82
2019-01-31T00:09:02.165Z,409.09
2019-01-31T00:10:02.150Z,409.79
2019-01-31T00:11:02.137Z,409.00
2019-01-31T00:12:02.155Z,408.60
2019-01-31T00:13:02.108Z,407.56
2019-01-31T00:14:02.097Z,409.46
2019-01-31T00:15:02.109Z,409.11
2019-01-31T00:16:02.100Z,407.94
2019-01-31T00:17:02.080Z,409.76
2019-01-31T00:18:02.085Z,409.21
2019-01-31T00:19:02.187Z,408.81
2019-01-31T00:20:02.030Z,409.31
2019-01-31T00:21:02.042Z,408.58
2019-01-31T00:22:02.046Z,408.97
2019-01-31T00:23:02.032Z,408.57
2019-01-31T00:24:02.008Z,408.56
2019-01-31T00:25:01.980Z,409.18
2019-01-31T00:26:01.967Z,409.73
2019-01-31T00:27:01.953Z,409.35
2019-01-31T00:28:01.981Z,409.14
2019-01-31T00:29:01.941Z,408.28
2019-01-31T00:30:01.935Z,409.10
2019-01-31T00:31:01.912Z,408.87
2019-01-31T00:32:01.906Z,408.67
2019-01-31T00:33:01.914Z,408.91
2019-01-31T00:34:01.930Z,409.52
2019-01-31T00:35:01.896Z,409.43
2019-01-31T00:36:01.868Z,408.66
2019-01-31T00:37:01.849Z,408.38
2019-01-31T00:38:01.845Z,407.92
2019-01-31T00:39:01.851Z,407.72
2019-01-31T00:40:01.858Z,408.00
2019-01-31T00:41:01.814Z,408.78
2019-01-31T00:42:01.843Z,409.36
2019-01-31T00:43:01.793Z,408.95
2019-01-31T00:44:01.790Z,409.05
2019-01-31T00:45:01.761Z,409.15
2019-01-31T00:46:01.765Z,408.06
2019-01-31T00:47:01.767Z,409.36
2019-01-31T00:48:01.776Z,409.56
2019-01-31T00:49:01.728Z,408.03
2019-01-31T00:50:01.739Z,408.10
2019-01-31T00:51:01.701Z,408.98
2019-01-31T00:52:01.699Z,408.67
2019-01-31T00:53:01.706Z,409.31
2019-01-31T00:54:01.718Z,408.29
2019-01-31T00:55:01.674Z,408.57
2019-01-31T00:56:01.670Z,408.68
2019-01-31T00:57:01.667Z,407.90
2019-01-31T00:58:01.629Z,409.40
2019-01-31T00:59:01.643Z,409.24
2019-01-31T01:00:01.614Z,408.26
2019-01-31T01:01:01.610Z,410.23
2019-01-31T01:02:01.611Z,409.46
2019-01-31T01:03:01.596Z,409.39
2019-01-31T01:04:01.575Z,407.93
2019-01-31T01:05:01.593Z,409.26
2019-01-31T01:06:01.558Z,409.30
2019-01-31T01:07:01.559Z,409.30
2019-01-31T01:08:01.523Z,409.68
2019-01-31T01:09:07.610Z,409.58
2019-01-31T01:10:02.493Z,409.00
2019-01-31T01:11:01.484Z,409.58
2019-01-31T01:12:04.406Z,408.60
2019-01-31T01:13:01.474Z,408.75
2019-01-31T01:14:01.459Z,408.80
2019-01-31T01:15:01.475Z,409.24
2019-01-31T01:16:01.452Z,410.22
2019-01-31T01:17:01.430Z,409.49
2019-01-31T01:18:01.441Z,409.15
2019-01-31T01:19:01.409Z,409.09
2019-01-31T01:20:01.394Z,408.68
2019-01-31T01:21:01.385Z,409.64
2019-01-31T01:22:01.365Z,407.75
2019-01-31T01:23:01.355Z,408.45
2019-01-31T01:24:01.446Z,409.22
2019-01-31T01:25:01.352Z,408.46
2019-01-31T01:26:01.332Z,408.50
2019-01-31T01:27:01.334Z,409.60
2019-01-31T01:28:01.318Z,407.82
2019-01-31T01:29:01.519Z,409.20
2019-01-31T01:30:01.279Z,409.17
2019-01-31T01:31:01.279Z,407.86
2019-01-31T01:32:01.261Z,409.20
2019-01-31T01:33:01.260Z,408.78
2019-01-31T01:34:01.679Z,408.78
2019-01-31T01:35:02.078Z,408.89
2019-01-31T01:36:01.213Z,409.22
2019-01-31T01:37:01.225Z,408.77
2019-01-31T01:38:01.205Z,407.99
2019-01-31T01:39:01.197Z,408.13
2019-01-31T01:40:01.260Z,408.22
2019-01-31T01:41:01.162Z,407.59
2019-01-31T01:42:01.152Z,408.08
2019-01-31T01:43:01.139Z,408.45
2019-01-31T01:44:01.127Z,409.05
2019-01-31T01:45:01.148Z,409.28
2019-01-31T01:46:01.121Z,408.95
2019-01-31T01:47:01.107Z,408.80
2019-01-31T01:48:01.102Z,409.39
2019-01-31T01:49:01.096Z,408.94
2019-01-31T01:50:01.114Z,408.42
2019-01-31T01:51:01.075Z,408.67
2019-01-31T01:52:01.059Z,408.62
2019-01-31T01:53:01.032Z,408.62
2019-01-31T01:54:01.027Z,408.97
2019-01-31T01:55:01.035Z,408.55
2019-01-31T01:56:01.030Z,408.44
2019-01-31T01:57:01.028Z,407.91
2019-01-31T01:58:01.005Z,409.19
2019-01-31T01:59:00.986Z,409.84
2019-01-31T02:00:00.981Z,409.03
2019-01-31T02:01:00.978Z,409.12
2019-01-31T02:02:00.967Z,408.96
2019-01-31T02:03:00.932Z,409.34
2019-01-31T02:04:00.915Z,408.23
2019-01-31T02:05:00.913Z,407.17
2019-01-31T02:06:00.936Z,408.70
2019-01-31T02:07:00.886Z,408.02
2019-01-31T02:08:00.883Z,408.50
2019-01-31T02:09:00.922Z,408.37
2019-01-31T02:10:00.874Z,408.58
2019-01-31T02:11:00.852Z,409.14
2019-01-31T02:12:00.865Z,408.94
2019-01-31T02:13:00.826Z,409.20
2019-01-31T02:14:00.808Z,408.47
2019-01-31T02:15:00.794Z,409.13
2019-01-31T02:16:00.787Z,408.93
2019-01-31T02:17:00.783Z,408.96
2019-01-31T02:18:00.794Z,409.33
2019-01-31T02:19:00.768Z,408.70
2019-01-31T02:20:00.805Z,409.38
2019-01-31T02:21:00.734Z,408.80
2019-01-31T02:22:00.725Z,407.99
2019-01-31T02:23:00.755Z,407.94
2019-01-31T02:24:00.724Z,408.49
2019-01-31T02:25:00.698Z,408.19
2019-01-31T02:26:00.702Z,408.75
2019-01-31T02:27:00.669Z,408.31
2019-01-31T02:28:00.662Z,408.52
2019-01-31T02:29:00.679Z,408.95
2019-01-31T02:30:00.649Z,408.73
2019-01-31T02:31:00.641Z,408.37
2019-01-31T02:32:00.627Z,408.84
2019-01-31T02:33:00.602Z,408.99
2019-01-31T02:34:00.647Z,408.92
2019-01-31T02:35:00.589Z,407.22
2019-01-31T02:36:00.593Z,408.57
2019-01-31T02:37:00.585Z,408.59
2019-01-31T02:38:00.562Z,408.14
2019-01-31T02:39:00.538Z,408.46
2019-01-31T02:40:00.552Z,408.64
2019-01-31T02:41:00.533Z,409.35
2019-01-31T02:42:00.516Z,409.05
2019-01-31T02:43:00.513Z,408.35
2019-01-31T02:44:00.514Z,407.02
2019-01-31T02:45:00.509Z,408.19
2019-01-31T02:46:00.470Z,409.23
2019-01-31T02:47:00.468Z,408.99
2019-01-31T02:48:00.479Z,408.59
2019-01-31T02:49:00.445Z,408.63
2019-01-31T02:50:00.565Z,408.89
2019-01-31T02:51:00.439Z,409.34
2019-01-31T02:52:00.409Z,408.40
2019-01-31T02:53:00.406Z,407.36
2019-01-31T02:54:00.396Z,408.89
2019-01-31T02:55:00.670Z,407.80
2019-01-31T02:56:00.402Z,408.75
2019-01-31T02:57:00.347Z,409.26
2019-01-31T02:58:00.337Z,407.99
2019-01-31T02:59:00.332Z,409.30
2019-01-31T03:00:00.383Z,409.11
2019-01-31T03:01:00.324Z,408.71
2019-01-31T03:02:00.322Z,408.37
2019-01-31T03:03:00.297Z,408.37
2019-01-31T03:04:00.281Z,408.55
2019-01-31T03:05:00.430Z,407.66
2019-01-31T03:06:00.252Z,408.53
2019-01-31T03:07:00.263Z,408.62
2019-01-31T03:08:00.227Z,409.13
2019-01-31T03:09:00.224Z,408.07
2019-01-31T03:10:00.228Z,407.87
2019-01-31T03:11:00.204Z,408.26
2019-01-31T03:12:00.207Z,408.53
2019-01-31T03:13:00.221Z,409.24
2019-01-31T03:14:09.968Z,408.28
2019-01-31T03:15:01.187Z,409.30
2019-01-31T03:16:00.156Z,408.12
2019-01-31T03:17:00.133Z,408.26
2019-01-31T03:18:00.136Z,408.76
2019-01-31T03:19:00.141Z,408.10
2019-01-31T03:20:00.864Z,407.18
2019-01-31T03:21:00.096Z,408.55
2019-01-31T03:22:00.102Z,409.27
2019-01-31T03:23:00.097Z,407.30
2019-01-31T03:24:00.089Z,408.34
2019-01-31T03:25:00.054Z,407.26
2019-01-31T03:26:00.085Z,408.72
2019-01-31T03:27:00.055Z,408.15
2019-01-31T03:28:00.063Z,408.81
2019-01-31T03:29:00.013Z,408.27
2019-01-31T03:30:00.021Z,407.61
2019-01-31T03:30:59.986Z,407.89
2019-01-31T03:31:59.977Z,408.24
2019-01-31T03:32:59.978Z,408.49
2019-01-31T03:33:59.985Z,408.57
2019-01-31T03:34:59.984Z,408.35
2019-01-31T03:35:59.951Z,409.95
2019-01-31T03:36:59.920Z,408.90
2019-01-31T03:37:59.915Z,408.92
2019-01-31T03:38:59.901Z,408.28
2019-01-31T03:40:06.860Z,408.02
2019-01-31T03:41:00.921Z,408.19
2019-01-31T03:41:59.883Z,408.26
2019-01-31T03:42:59.862Z,407.48
2019-01-31T03:43:59.845Z,408.25
2019-01-31T03:44:59.852Z,408.24
2019-01-31T03:45:59.828Z,408.77
2019-01-31T03:46:59.899Z,407.96
2019-01-31T03:47:59.832Z,408.39
2019-01-31T03:48:59.796Z,409.07
2019-01-31T03:49:59.781Z,409.00
2019-01-31T03:50:59.787Z,407.54
2019-01-31T03:51:59.787Z,408.39
2019-01-31T03:52:59.769Z,408.92
2019-01-31T03:53:59.749Z,408.37
2019-01-31T03:54:59.740Z,408.26
2019-01-31T03:55:59.726Z,409.51
2019-01-31T03:56:59.710Z,407.32
2019-01-31T03:57:59.723Z,408.77
2019-01-31T03:58:59.699Z,407.91
2019-01-31T03:59:59.687Z,408.06
2019-01-31T04:00:59.669Z,407.72
2019-01-31T04:01:59.675Z,409.10
2019-01-31T04:02:59.675Z,407.89
2019-01-31T04:03:59.638Z,408.43
2019-01-31T04:04:59.643Z,407.52
2019-01-31T04:05:59.621Z,408.41
2019-01-31T04:06:59.623Z,407.97
2019-01-31T04:07:59.677Z,408.48
2019-01-31T04:08:59.590Z,408.06
2019-01-31T04:09:59.576Z,408.85
2019-01-31T04:10:59.554Z,407.89
2019-01-31T04:11:59.542Z,408.63
2019-01-31T04:12:59.591Z,408.67
2019-01-31T04:13:59.528Z,409.06
2019-01-31T04:14:59.509Z,407.97
2019-01-31T04:15:59.506Z,408.01
2019-01-31T04:16:59.513Z,407.67
2019-01-31T04:17:59.481Z,407.98
2019-01-31T04:18:59.511Z,408.39
2019-01-31T04:19:59.474Z,408.14
2019-01-31T04:20:59.446Z,407.87
2019-01-31T04:21:59.447Z,408.63
2019-01-31T04:22:59.433Z,408.48
2019-01-31T04:23:59.426Z,408.51
2019-01-31T04:24:59.450Z,408.13
2019-01-31T04:25:59.416Z,407.78
2019-01-31T04:26:59.402Z,407.97
2019-01-31T04:27:59.427Z,408.95
2019-01-31T04:28:59.357Z,408.62
2019-01-31T04:29:59.350Z,407.83
2019-01-31T04:30:59.379Z,408.21
2019-01-31T04:31:59.354Z,408.86
2019-01-31T04:32:59.342Z,408.41
2019-01-31T04:33:59.303Z,408.98
2019-01-31T04:34:59.300Z,408.97
2019-01-31T04:35:59.314Z,408.98
2019-01-31T04:36:59.281Z,407.94
2019-01-31T04:37:59.294Z,408.55
2019-01-31T04:38:59.277Z,408.51
2019-01-31T04:39:59.264Z,409.17
2019-01-31T04:40:59.238Z,408.79
2019-01-31T04:41:59.252Z,408.77
2019-01-31T04:42:59.215Z,407.83
2019-01-31T04:43:59.221Z,408.18
2019-01-31T04:44:59.206Z,409.13
2019-01-31T04:45:59.203Z,409.24
2019-01-31T04:46:59.207Z,408.90
2019-01-31T04:47:59.155Z,407.82
2019-01-31T04:48:59.158Z,409.58
2019-01-31T04:49:59.159Z,409.57
2019-01-31T04:50:59.144Z,409.62
2019-01-31T04:51:59.150Z,409.90
2019-01-31T04:52:59.209Z,408.05
2019-01-31T04:53:59.091Z,409.36
2019-01-31T04:54:59.095Z,408.04
2019-01-31T04:55:59.075Z,408.47
2019-01-31T04:56:59.105Z,409.62
2019-01-31T04:57:59.092Z,409.74
2019-01-31T04:58:59.046Z,409.53
2019-01-31T04:59:59.040Z,409.30
2019-01-31T05:00:59.039Z,409.24
2019-01-31T05:01:59.005Z,409.20
2019-01-31T05:02:59.057Z,409.83
2019-01-31T05:03:58.995Z,409.03
2019-01-31T05:04:58.985Z,409.03
2019-01-31T05:05:58.964Z,409.88
2019-01-31T05:06:58.959Z,408.78
2019-01-31T05:07:58.951Z,407.77
2019-01-31T05:08:59.002Z,409.08
2019-01-31T05:09:58.935Z,409.26
2019-01-31T05:10:58.933Z,407.72
2019-01-31T05:11:58.908Z,408.40
2019-01-31T05:12:58.897Z,408.62
2019-01-31T05:13:58.882Z,409.25
2019-01-31T05:14:58.889Z,407.09
2019-01-31T05:15:58.856Z,408.45
2019-01-31T05:16:58.864Z,408.45
2019-01-31T05:17:58.849Z,408.39
2019-01-31T05:18:58.820Z,408.16
2019-01-31T05:19:58.852Z,409.08
2019-01-31T05:20:58.826Z,407.92
2019-01-31T05:21:58.811Z,408.44
2019-01-31T05:22:58.779Z,408.25
2019-01-31T05:23:58.787Z,408.42
2019-01-31T05:24:58.784Z,408.69
2019-01-31T05:25:58.757Z,408.76
2019-01-31T05:26:58.742Z,408.80
2019-01-31T05:27:58.741Z,408.68
2019-01-31T05:28:58.730Z,409.59
2019-01-31T05:29:58.729Z,409.15
2019-01-31T05:30:58.751Z,408.17
2019-01-31T05:31:58.702Z,408.79
2019-01-31T05:32:59.164Z,408.19
2019-01-31T05:33:58.683Z,409.23
2019-01-31T05:34:58.662Z,408.50
2019-01-31T05:35:58.646Z,409.14
2019-01-31T05:36:58.631Z,409.42
2019-01-31T05:37:58.667Z,408.72
2019-01-31T05:38:58.615Z,408.16
2019-01-31T05:39:58.608Z,409.71
2019-01-31T05:40:58.594Z,408.86
2019-01-31T05:41:58.589Z,408.93
2019-01-31T05:42:58.576Z,408.72
2019-01-31T05:43:58.576Z,408.39
2019-01-31T05:44:58.542Z,408.58
2019-01-31T05:45:58.566Z,409.45
2019-01-31T05:46:58.530Z,409.14
2019-01-31T05:47:58.530Z,408.45
2019-01-31T05:48:58.515Z,409.11
2019-01-31T05:49:58.529Z,409.08
2019-01-31T05:50:58.485Z,408.90
2019-01-31T05:51:58.493Z,407.91
2019-01-31T05:52:58.475Z,409.40
2019-01-31T05:53:58.464Z,408.44
2019-01-31T05:54:58.453Z,408.71
2019-01-31T05:55:58.450Z,408.60
2019-01-31T05:56:58.414Z,408.97
2019-01-31T05:57:58.438Z,409.38
2019-01-31T05:58:58.412Z,408.05
2019-01-31T05:59:58.420Z,408.93
2019-01-31T06:00:58.392Z,409.08
2019-01-31T06:01:58.416Z,409.77
2019-01-31T06:02:58.361Z,410.08
2019-01-31T06:03:58.345Z,408.36
2019-01-31T06:04:58.337Z,409.57
2019-01-31T06:05:58.338Z,409.54
2019-01-31T06:06:58.323Z,408.75
2019-01-31T06:07:58.333Z,409.58
2019-01-31T06:08:58.300Z,410.14
2019-01-31T06:09:58.269Z,408.93
2019-01-31T06:11:07.087Z,408.87
2019-01-31T06:11:59.266Z,408.12
2019-01-31T06:12:58.291Z,408.23
2019-01-31T06:13:58.265Z,409.37
2019-01-31T06:14:58.238Z,408.91
2019-01-31T06:15:58.215Z,408.87
2019-01-31T06:16:58.211Z,408.24
2019-01-31T06:17:58.224Z,409.15
2019-01-31T06:18:58.187Z,408.67
2019-01-31T06:19:58.180Z,408.37
2019-01-31T06:20:58.170Z,408.87
2019-01-31T06:21:58.142Z,409.04
2019-01-31T06:22:58.146Z,409.13
2019-01-31T06:23:58.168Z,408.64
2019-01-31T06:24:58.128Z,408.41
2019-01-31T06:25:58.142Z,408.65
2019-01-31T06:26:58.116Z,409.20
2019-01-31T06:27:58.087Z,408.77
2019-01-31T06:28:58.101Z,408.28
2019-01-31T06:29:58.123Z,408.62
2019-01-31T06:30:58.049Z,408.47
2019-01-31T06:31:58.059Z,408.30
2019-01-31T06:32:58.070Z,408.65
2019-01-31T06:33:58.515Z,409.11
2019-01-31T06:34:58.034Z,409.33
2019-01-31T06:35:58.006Z,409.25
2019-01-31T06:36:58.013Z,408.67
2019-01-31T06:37:57.986Z,408.66
2019-01-31T06:38:57.994Z,408.52
2019-01-31T06:39:57.980Z,409.44
2019-01-31T06:40:57.982Z,409.12
2019-01-31T06:41:57.944Z,408.28
2019-01-31T06:42:57.935Z,408.97
2019-01-31T06:43:57.949Z,408.41
2019-01-31T06:44:57.909Z,407.86
2019-01-31T06:45:58.129Z,409.32
2019-01-31T06:46:57.937Z,408.29
2019-01-31T06:47:57.913Z,408.41
2019-01-31T06:48:57.857Z,409.05
2019-01-31T06:49:57.952Z,408.43
2019-01-31T06:50:57.974Z,409.79
2019-01-31T06:51:57.912Z,409.00
2019-01-31T06:52:58.255Z,408.81
2019-01-31T06:53:57.810Z,408.04
2019-01-31T06:54:57.801Z,409.42
2019-01-31T06:55:57.793Z,408.57
2019-01-31T06:56:57.801Z,408.68
2019-01-31T06:57:57.805Z,409.18
2019-01-31T06:58:57.775Z,409.22
2019-01-31T06:59:57.754Z,408.52
2019-01-31T07:00:57.730Z,408.50
2019-01-31T07:01:57.734Z,408.77
2019-01-31T07:02:57.712Z,408.35
2019-01-31T07:03:57.727Z,408.04
2019-01-31T07:04:57.698Z,408.31
2019-01-31T07:05:57.697Z,409.04
2019-01-31T07:06:57.678Z,408.45
2019-01-31T07:07:57.664Z,409.57
2019-01-31T07:08:57.679Z,408.52
2019-01-31T07:09:57.649Z,408.73
2019-01-31T07:10:57.633Z,409.88
2019-01-31T07:11:57.632Z,409.15
2019-01-31T07:12:57.601Z,408.85
2019-01-31T07:13:57.599Z,408.56
2019-01-31T07:14:57.613Z,409.44
2019-01-31T07:15:57.586Z,408.55
2019-01-31T07:16:57.572Z,408.75
2019-01-31T07:17:57.587Z,409.97
2019-01-31T07:18:57.553Z,409.27
2019-01-31T07:19:57.529Z,408.82
2019-01-31T07:20:57.537Z,409.19
2019-01-31T07:21:57.532Z,409.70
2019-01-31T07:22:57.506Z,408.75
2019-01-31T07:23:57.496Z,410.73
2019-01-31T07:24:57.487Z,409.60
2019-01-31T07:25:57.489Z,409.39
2019-01-31T07:26:57.460Z,409.18
2019-01-31T07:27:57.452Z,410.24
2019-01-31T07:28:57.447Z,409.42
2019-01-31T07:29:57.459Z,409.17
2019-01-31T07:30:57.417Z,408.77
2019-01-31T07:31:57.428Z,409.61
2019-01-31T07:32:57.397Z,409.18
2019-01-31T07:33:57.383Z,409.48
2019-01-31T07:34:57.384Z,409.28
2019-01-31T07:35:57.362Z,409.49
2019-01-31T07:36:57.359Z,409.56
2019-01-31T07:37:57.368Z,410.33
2019-01-31T07:38:57.343Z,409.14
2019-01-31T07:39:57.316Z,410.01
2019-01-31T07:40:57.319Z,409.24
2019-01-31T07:41:57.337Z,409.20
2019-01-31T07:42:57.292Z,409.06
2019-01-31T07:43:57.272Z,409.84
2019-01-31T07:44:57.268Z,409.62
2019-01-31T07:45:57.253Z,410.19
2019-01-31T07:46:57.259Z,409.43
2019-01-31T07:47:57.263Z,409.99
2019-01-31T07:48:57.234Z,409.14
2019-01-31T07:49:57.217Z,409.15
2019-01-31T07:50:57.237Z,409.51
2019-01-31T07:51:57.188Z,409.63
2019-01-31T07:52:57.177Z,410.00
2019-01-31T07:53:57.165Z,409.63
2019-01-31T07:54:57.168Z,409.33
2019-01-31T07:55:57.148Z,408.64
2019-01-31T07:56:57.152Z,409.61
2019-01-31T07:57:57.133Z,408.63
2019-01-31T07:58:57.129Z,409.18
2019-01-31T07:59:57.118Z,408.52
2019-01-31T08:00:57.100Z,408.81
2019-01-31T08:01:57.081Z,409.62
2019-01-31T08:02:57.111Z,409.08
2019-01-31T08:04:02.479Z,409.14
2019-01-31T08:04:58.063Z,408.18
2019-01-31T08:05:57.036Z,409.42
2019-01-31T08:06:57.024Z,409.86
2019-01-31T08:07:57.025Z,410.01
2019-01-31T08:08:57.009Z,410.03
2019-01-31T08:09:57.035Z,408.91
2019-01-31T08:10:56.995Z,408.80
2019-01-31T08:11:56.972Z,410.60
2019-01-31T08:12:56.963Z,409.25
2019-01-31T08:13:56.978Z,409.21
2019-01-31T08:14:56.946Z,409.62
2019-01-31T08:15:56.946Z,409.26
2019-01-31T08:16:56.936Z,409.46
2019-01-31T08:17:56.914Z,409.72
2019-01-31T08:18:56.908Z,409.32
2019-01-31T08:19:56.893Z,410.01
2019-01-31T08:20:56.903Z,410.13
2019-01-31T08:21:56.878Z,409.21
2019-01-31T08:22:59.813Z,409.88
2019-01-31T08:23:56.841Z,409.87
2019-01-31T08:24:56.831Z,409.65
2019-01-31T08:25:56.842Z,410.06
2019-01-31T08:26:56.808Z,409.85
2019-01-31T08:27:56.815Z,409.58
2019-01-31T08:28:56.800Z,409.66
2019-01-31T08:29:56.780Z,408.97
2019-01-31T08:30:56.789Z,408.92
2019-01-31T08:31:56.774Z,409.78
2019-01-31T08:32:56.765Z,408.29
2019-01-31T08:33:56.747Z,409.71
2019-01-31T08:34:56.756Z,408.91
2019-01-31T08:35:56.762Z,409.64
2019-01-31T08:36:56.711Z,409.10
2019-01-31T08:37:56.709Z,409.61
2019-01-31T08:38:56.681Z,410.02
2019-01-31T08:39:56.684Z,409.17
2019-01-31T08:40:56.676Z,409.89
2019-01-31T08:42:03.468Z,409.39
2019-01-31T08:42:57.936Z,409.75
2019-01-31T08:43:56.647Z,409.28
2019-01-31T08:44:56.613Z,409.04
2019-01-31T08:45:56.614Z,409.01
2019-01-31T08:46:56.602Z,409.18
2019-01-31T08:47:56.586Z,409.11
2019-01-31T08:48:56.599Z,409.76
2019-01-31T08:49:56.563Z,409.58
2019-01-31T08:50:56.715Z,409.67
2019-01-31T08:51:56.561Z,410.19
2019-01-31T08:52:56.599Z,409.60
2019-01-31T08:53:56.531Z,409.47
2019-01-31T08:54:56.548Z,409.96
2019-01-31T08:55:56.493Z,409.28
2019-01-31T08:56:56.493Z,410.49
2019-01-31T08:57:56.479Z,409.74
2019-01-31T08:58:56.465Z,410.10
2019-01-31T08:59:56.459Z,410.55
2019-01-31T09:00:56.455Z,410.16
2019-01-31T09:01:56.434Z,409.88
2019-01-31T09:02:56.421Z,410.42
2019-01-31T09:03:56.411Z,409.92
2019-01-31T09:04:56.405Z,409.60
2019-01-31T09:05:56.434Z,409.91
2019-01-31T09:06:56.376Z,409.61
2019-01-31T09:07:56.373Z,409.43
2019-01-31T09:08:56.368Z,409.46
2019-01-31T09:09:56.349Z,409.25
2019-01-31T09:10:56.330Z,409.46
2019-01-31T09:11:56.350Z,408.43
2019-01-31T09:12:56.331Z,409.04
2019-01-31T09:13:56.314Z,408.78
2019-01-31T09:14:56.299Z,408.84
2019-01-31T09:15:56.277Z,408.93
2019-01-31T09:16:56.334Z,408.51
2019-01-31T09:17:56.275Z,408.57
2019-01-31T09:18:56.270Z,408.68
2019-01-31T09:19:56.238Z,408.51
2019-01-31T09:20:56.219Z,408.52
2019-01-31T09:21:56.244Z,409.46
2019-01-31T09:22:56.224Z,408.29
2019-01-31T09:23:56.213Z,408.98
2019-01-31T09:24:56.193Z,408.88
2019-01-31T09:25:56.179Z,408.19
2019-01-31T09:26:56.163Z,408.52
2019-01-31T09:27:56.196Z,408.39
2019-01-31T09:28:56.138Z,408.62
2019-01-31T09:29:56.137Z,408.22
2019-01-31T09:30:56.124Z,407.70
2019-01-31T09:31:56.116Z,407.97
2019-01-31T09:32:56.106Z,407.79
2019-01-31T09:33:56.101Z,407.94
2019-01-31T09:34:56.078Z,408.33
2019-01-31T09:35:56.081Z,409.17
2019-01-31T09:36:56.061Z,408.15
2019-01-31T09:37:56.088Z,409.12
2019-01-31T09:38:56.066Z,409.02
2019-01-31T09:39:56.019Z,408.89
2019-01-31T09:40:56.018Z,409.63
2019-01-31T09:41:56.007Z,409.16
2019-01-31T09:42:55.997Z,410.33
2019-01-31T09:43:56.192Z,409.27
2019-01-31T09:44:56.013Z,409.07
2019-01-31T09:45:56.321Z,408.46
2019-01-31T09:46:55.992Z,408.96
2019-01-31T09:47:55.970Z,409.46
2019-01-31T09:48:55.933Z,410.40
2019-01-31T09:49:55.911Z,409.22
2019-01-31T09:50:55.967Z,409.35
2019-01-31T09:51:55.907Z,409.44
2019-01-31T09:52:55.877Z,412.45
2019-01-31T09:53:55.870Z,412.60
2019-01-31T09:54:55.889Z,408.75
2019-01-31T09:55:55.951Z,408.64
2019-01-31T09:56:55.922Z,409.87
2019-01-31T09:57:55.879Z,409.58
2019-01-31T09:58:55.864Z,410.21
2019-01-31T09:59:55.883Z,409.07
2019-01-31T10:00:55.834Z,410.19
2019-01-31T10:01:55.789Z,409.73
2019-01-31T10:02:55.770Z,410.95
2019-01-31T10:03:55.775Z,409.17
2019-01-31T10:04:55.754Z,407.86
2019-01-31T10:05:55.734Z,412.58
2019-01-31T10:06:55.764Z,407.19
2019-01-31T10:07:55.728Z,409.18
2019-01-31T10:08:55.805Z,412.90
2019-01-31T10:09:55.710Z,410.56
2019-01-31T10:10:55.697Z,417.08
2019-01-31T10:11:55.772Z,412.69
2019-01-31T10:12:55.778Z,409.92
2019-01-31T10:13:55.672Z,413.52
2019-01-31T10:14:55.649Z,413.10
2019-01-31T10:15:55.718Z,412.85
2019-01-31T10:16:55.703Z,416.86
2019-01-31T10:17:55.671Z,414.69
2019-01-31T10:18:55.706Z,413.24
2019-01-31T10:19:55.608Z,405.93
2019-01-31T10:20:55.651Z,411.60
2019-01-31T10:21:55.703Z,410.77
2019-01-31T10:22:55.642Z,413.89
2019-01-31T10:23:55.610Z,410.31
2019-01-31T10:24:55.651Z,404.07
2019-01-31T10:25:55.547Z,408.54
2019-01-31T10:26:55.524Z,411.59
2019-01-31T10:27:55.519Z,410.71
2019-01-31T10:28:55.587Z,410.34
2019-01-31T10:29:55.614Z,407.81
2019-01-31T10:30:55.487Z,413.09
2019-01-31T10:31:55.510Z,409.67
2019-01-31T10:32:55.448Z,402.58
2019-01-31T10:33:55.461Z,411.38
2019-01-31T10:34:55.467Z,405.59
2019-01-31T10:35:55.411Z,402.03
2019-01-31T10:36:55.450Z,410.67
2019-01-31T10:37:55.393Z,398.29
2019-01-31T10:38:55.398Z,411.32
2019-01-31T10:39:55.371Z,403.62
2019-01-31T10:40:55.377Z,400.18
2019-01-31T10:41:55.346Z,399.86
2019-01-31T10:42:55.354Z,398.70
2019-01-31T10:43:55.329Z,411.35
2019-01-31T10:44:55.304Z,394.37
2019-01-31T10:45:55.341Z,401.16
2019-01-31T10:46:55.303Z,402.88
2019-01-31T10:47:55.282Z,399.25
2019-01-31T10:48:55.290Z,403.21
2019-01-31T10:49:55.265Z,405.06
2019-01-31T10:50:55.267Z,408.81
2019-01-31T10:51:55.278Z,406.20
2019-01-31T10:52:55.222Z,405.10
2019-01-31T10:53:55.207Z,404.20
2019-01-31T10:54:55.199Z,404.59
2019-01-31T10:55:55.266Z,405.83
2019-01-31T10:56:55.177Z,400.15
2019-01-31T10:57:55.236Z,403.91
2019-01-31T10:58:55.158Z,393.47
2019-01-31T10:59:55.182Z,401.92
2019-01-31T11:00:55.177Z,404.96
2019-01-31T11:01:55.182Z,393.07
2019-01-31T11:02:55.134Z,398.79
2019-01-31T11:03:55.098Z,402.78
2019-01-31T11:04:55.159Z,406.13
2019-01-31T11:05:55.090Z,397.15
2019-01-31T11:06:55.067Z,407.85
2019-01-31T11:07:55.078Z,397.91
2019-01-31T11:08:55.101Z,395.17
2019-01-31T11:09:55.055Z,392.27
2019-01-31T11:10:55.053Z,394.27
2019-01-31T11:11:55.069Z,401.31
2019-01-31T11:13:00.718Z,389.58
2019-01-31T11:13:56.032Z,393.35
2019-01-31T11:14:54.991Z,390.35
2019-01-31T11:15:54.968Z,405.14
2019-01-31T11:16:54.973Z,408.44
2019-01-31T11:17:54.969Z,385.24
2019-01-31T11:18:55.186Z,388.23
2019-01-31T11:19:54.969Z,407.21
2019-01-31T11:20:54.942Z,392.18
2019-01-31T11:21:54.927Z,398.57
2019-01-31T11:22:54.913Z,405.16
2019-01-31T11:23:54.909Z,397.09
2019-01-31T11:24:54.865Z,396.27
2019-01-31T11:25:54.862Z,401.20
2019-01-31T11:26:57.037Z,389.28
2019-01-31T11:27:54.850Z,400.63
2019-01-31T11:28:54.823Z,390.94
2019-01-31T11:29:54.871Z,396.55
2019-01-31T11:30:54.823Z,391.06
2019-01-31T11:31:54.786Z,398.93
2019-01-31T11:32:54.797Z,398.21
2019-01-31T11:33:54.803Z,397.48
2019-01-31T11:34:54.809Z,391.80
2019-01-31T11:35:54.787Z,397.79
2019-01-31T11:36:54.748Z,399.62
2019-01-31T11:37:54.724Z,388.21
2019-01-31T11:38:54.716Z,398.17
2019-01-31T11:39:54.741Z,396.36
2019-01-31T11:40:54.709Z,397.70
2019-01-31T11:41:54.802Z,404.25
2019-01-31T11:42:54.665Z,397.54
2019-01-31T11:43:54.666Z,401.53
2019-01-31T11:44:54.694Z,399.71
2019-01-31T11:45:54.668Z,391.27
2019-01-31T11:46:54.664Z,403.27
2019-01-31T11:47:54.640Z,398.92
2019-01-31T11:48:54.604Z,404.68
2019-01-31T11:49:54.612Z,395.87
2019-01-31T11:50:54.585Z,407.82
2019-01-31T11:51:54.627Z,406.40
2019-01-31T11:52:54.574Z,404.20
2019-01-31T11:53:54.543Z,402.27
2019-01-31T11:54:55.311Z,403.30
2019-01-31T11:55:54.555Z,403.02
2019-01-31T11:57:05.011Z,403.61
2019-01-31T11:57:55.548Z,402.98
2019-01-31T11:58:54.509Z,406.25
2019-01-31T11:59:54.471Z,407.38
2019-01-31T12:00:54.479Z,407.78
2019-01-31T12:01:54.457Z,406.62
2019-01-31T12:02:55.370Z,409.13
2019-01-31T12:03:54.447Z,405.43
2019-01-31T12:04:55.370Z,408.35
2019-01-31T12:05:54.442Z,404.93
2019-01-31T12:06:54.421Z,403.88
2019-01-31T12:07:54.389Z,407.82
2019-01-31T12:08:54.406Z,405.02
2019-01-31T12:09:54.363Z,405.50
2019-01-31T12:10:54.354Z,404.68
2019-01-31T12:11:54.357Z,408.75
2019-01-31T12:12:54.348Z,410.65
2019-01-31T12:13:54.322Z,405.39
2019-01-31T12:14:54.335Z,404.53
2019-01-31T12:15:54.317Z,407.76
2019-01-31T12:16:54.292Z,409.78
2019-01-31T12:17:54.289Z,406.95
2019-01-31T12:18:54.276Z,407.47
2019-01-31T12:19:54.287Z,406.27
2019-01-31T12:20:54.267Z,404.94
2019-01-31T12:21:54.235Z,408.55
2019-01-31T12:22:54.228Z,408.23
2019-01-31T12:23:54.226Z,410.11
2019-01-31T12:24:54.214Z,410.11
2019-01-31T12:25:54.215Z,409.17
2019-01-31T12:26:54.216Z,407.79
2019-01-31T12:27:54.190Z,410.27